Time;durP1;ratioP1;P1;durP2;ratioP2;P2;SDS_P1;SDS_P2;PMS_P1;PMS_P2;Temp;Humidity;BMP_temperature;BMP_pressure;BME280_temperature;BME280_humidity;BME280_pressure;Samples;Min_cycle;Max_cycle;Signal;HPM_P1;HPM_P2
2021/07/10 00:02:02;;;;;;;12.90;10.80;;;;;;;21.37;50.71;98794.97;5093087;28;20390;-82
2021/07/10 00:04:28;;;;;;;11.73;10.50;;;;;;;21.33;50.68;98800.81;5092999;28;20522;-82
2021/07/10 00:06:56;;;;;;;17.52;12.10;;;;;;;21.30;50.61;98797.66;5058306;28;20043;-82
2021/07/10 00:09:22;;;;;;;15.02;11.02;;;;;;;21.36;50.61;98796.00;5075318;28;20042;-82
2021/07/10 00:11:48;;;;;;;14.27;10.88;;;;;;;21.38;50.70;98805.63;5092891;28;20123;-82
2021/07/10 00:14:14;;;;;;;12.88;11.02;;;;;;;21.41;50.28;98793.53;5074441;28;20568;-83
2021/07/10 00:16:40;;;;;;;16.10;10.85;;;;;;;21.50;50.19;98803.97;5093164;28;20138;-83
2021/07/10 00:19:06;;;;;;;14.30;10.93;;;;;;;21.51;50.40;98793.94;5075188;28;20122;-83
2021/07/10 00:21:32;;;;;;;11.45;10.25;;;;;;;21.53;50.39;98795.41;5074826;28;20046;-84
2021/07/10 00:23:58;;;;;;;14.48;12.20;;;;;;;21.62;50.01;98800.66;5057976;28;20051;-83
2021/07/10 00:26:24;;;;;;;17.05;10.73;;;;;;;21.63;50.24;98797.75;5074823;28;20411;-82
2021/07/10 00:28:49;;;;;;;23.17;11.45;;;;;;;21.70;50.21;98797.72;5041208;28;20511;-83
2021/07/10 00:31:15;;;;;;;15.60;11.40;;;;;;;21.77;50.13;98798.56;5092667;28;20124;-82
2021/07/10 00:33:42;;;;;;;15.25;9.60;;;;;;;21.83;50.20;98786.88;5077084;28;20040;-84
2021/07/10 00:36:08;;;;;;;24.70;16.15;;;;;;;21.93;49.69;98792.75;5097362;28;20097;-82
2021/07/10 00:38:34;;;;;;;17.65;13.45;;;;;;;22.00;49.57;98790.88;5079482;28;20048;-80
2021/07/10 00:41:00;;;;;;;17.33;10.88;;;;;;;22.10;49.32;98797.75;5061938;28;20074;-78
2021/07/10 00:43:26;;;;;;;11.30;10.25;;;;;;;22.14;49.43;98799.03;5096877;28;20047;-78
2021/07/10 00:45:52;;;;;;;14.48;10.98;;;;;;;22.17;49.23;98793.19;5078586;28;20100;-81
2021/07/10 00:48:18;;;;;;;14.60;10.18;;;;;;;22.23;49.08;98792.34;5078523;28;20106;-79
2021/07/10 00:50:44;;;;;;;17.15;11.32;;;;;;;22.19;49.27;98804.69;5096247;28;20521;-82
2021/07/10 00:53:11;;;;;;;16.60;10.45;;;;;;;22.11;49.28;98793.97;5096159;28;20483;-82
2021/07/10 00:55:36;;;;;;;18.27;10.15;;;;;;;22.16;49.02;98796.97;5096407;28;20048;-81
2021/07/10 00:58:03;;;;;;;13.60;10.40;;;;;;;22.20;49.21;98795.47;5077870;28;20044;-82
2021/07/10 01:00:28;;;;;;;14.63;10.45;;;;;;;22.14;49.22;98782.72;5061590;28;20126;-82
2021/07/10 01:02:55;;;;;;;17.75;12.60;;;;;;;22.23;49.29;98798.63;5078086;28;20123;-82
2021/07/10 01:05:23;;;;;;;17.27;10.68;;;;;;;22.27;49.05;98793.59;5096571;28;20093;-82
2021/07/10 01:07:49;;;;;;;17.17;10.15;;;;;;;22.30;48.80;98795.88;5061965;28;20044;-83
2021/07/10 01:10:15;;;;;;;12.52;10.43;;;;;;;22.39;49.03;98794.63;5078147;28;20059;-83
2021/07/10 01:12:43;;;;;;;15.38;11.30;;;;;;;22.29;49.24;98807.81;5077991;28;20147;-81
2021/07/10 01:15:10;;;;;;;16.63;10.55;;;;;;;22.27;49.08;98804.47;5061120;28;20048;-81
2021/07/10 01:17:36;;;;;;;13.73;10.30;;;;;;;22.19;49.55;98797.38;5061171;28;20039;-81
2021/07/10 01:20:05;;;;;;;18.25;11.73;;;;;;;22.25;49.35;98799.22;5061492;28;20047;-81
2021/07/10 01:22:32;;;;;;;22.58;12.70;;;;;;;22.33;49.21;98803.63;5078068;28;20131;-82
2021/07/10 01:24:58;;;;;;;16.45;12.85;;;;;;;22.41;49.10;98800.66;5095856;28;20379;-82
2021/07/10 01:27:24;;;;;;;12.88;11.50;;;;;;;22.44;49.46;98793.97;5096069;28;20506;-81
2021/07/10 01:29:50;;;;;;;18.23;11.88;;;;;;;22.43;49.10;98798.59;5077880;28;20079;-83
2021/07/10 01:32:18;;;;;;;18.27;11.27;;;;;;;22.51;49.14;98805.69;5077561;28;20052;-84
2021/07/10 01:34:48;;;;;;;23.13;13.68;;;;;;;22.54;49.07;98795.22;5096058;28;20538;-82
2021/07/10 01:37:14;;;;;;;23.30;12.73;;;;;;;22.62;48.87;98791.41;5077422;28;20050;-82
2021/07/10 01:39:40;;;;;;;18.23;11.50;;;;;;;22.66;48.65;98792.66;5077396;28;20043;-83
2021/07/10 01:42:06;;;;;;;18.65;13.23;;;;;;;22.73;48.72;98792.66;5077268;28;20138;-82
2021/07/10 01:44:32;;;;;;;24.42;12.32;;;;;;;22.81;48.68;98799.75;5077441;28;20040;-82
2021/07/10 01:46:58;;;;;;;19.42;13.20;;;;;;;22.92;48.40;98799.94;5077314;28;20418;-83
2021/07/10 01:49:24;;;;;;;21.02;13.63;;;;;;;22.96;48.20;98793.00;5095209;28;20040;-82
2021/07/10 01:51:50;;;;;;;17.27;12.48;;;;;;;23.01;48.29;98793.19;5095339;28;20047;-81
2021/07/10 01:54:16;;;;;;;23.45;12.30;;;;;;;23.08;48.17;98801.34;5095238;28;20490;-81
2021/07/10 01:56:42;;;;;;;23.77;12.52;;;;;;;23.15;48.20;98804.03;5077152;28;20068;-83
2021/07/10 01:59:08;;;;;;;20.55;11.13;;;;;;;23.15;47.98;98795.84;5076873;28;20044;-83
2021/07/10 02:01:34;;;;;;;20.38;11.65;;;;;;;23.22;47.99;98794.78;5095046;28;20040;-81
2021/07/10 02:04:00;;;;;;;20.73;11.88;;;;;;;23.30;47.84;98793.69;5095048;28;20044;-81
2021/07/10 02:06:27;;;;;;;16.67;11.40;;;;;;;23.37;47.68;98782.75;5094914;28;20062;-82
2021/07/10 02:08:53;;;;;;;13.68;10.98;;;;;;;23.46;47.75;98792.31;5059824;28;20036;-81
2021/07/10 02:11:19;;;;;;;17.55;11.13;;;;;;;23.50;47.65;98783.47;5060192;28;20036;-82
2021/07/10 02:13:45;;;;;;;13.75;11.27;;;;;;;23.61;47.42;98790.13;5094481;28;20444;-84
2021/07/10 02:16:11;;;;;;;16.80;11.70;;;;;;;23.71;46.94;98795.13;5076750;28;20044;-83
2021/07/10 02:18:37;;;;;;;16.08;10.98;;;;;;;23.78;46.74;98798.66;5060237;28;20384;-84
2021/07/10 02:21:04;;;;;;;14.20;9.77;;;;;;;23.87;46.50;98789.13;5094649;28;20048;-82
2021/07/10 02:23:29;;;;;;;15.90;11.18;;;;;;;24.02;46.11;98785.22;5094607;28;20672;-81
2021/07/10 02:25:55;;;;;;;20.80;10.50;;;;;;;24.13;45.96;98787.22;5094528;28;20047;-79
2021/07/10 02:28:21;;;;;;;24.70;10.90;;;;;;;24.25;45.91;98796.34;5094683;28;20406;-85
2021/07/10 02:30:47;;;;;;;23.73;10.80;;;;;;;24.36;45.42;98786.59;5094517;28;20071;-83
2021/07/10 02:33:13;;;;;;;17.00;9.57;;;;;;;24.44;45.27;98792.63;5094502;28;20094;-84
2021/07/10 02:35:39;;;;;;;13.52;10.15;;;;;;;24.58;44.91;98792.50;5076004;28;20137;-84
2021/07/10 02:38:05;;;;;;;22.13;11.25;;;;;;;24.64;45.08;98783.41;5059508;28;20169;-83
2021/07/10 02:40:31;;;;;;;10.43;9.32;;;;;;;24.66;44.65;98782.09;5094674;28;20040;-82
2021/07/10 02:42:57;;;;;;;22.45;10.00;;;;;;;24.74;44.27;98786.41;5094452;28;20395;-80
2021/07/10 02:45:23;;;;;;;16.67;9.85;;;;;;;24.71;44.71;98792.34;5059372;28;20056;-82
2021/07/10 02:47:49;;;;;;;13.63;10.07;;;;;;;24.82;44.71;98798.94;5094229;28;20449;-80
2021/07/10 02:50:21;;;;;;;16.83;9.30;;;;;;;24.76;44.61;98791.69;5076145;28;20051;-83
2021/07/10 02:52:47;;;;;;;12.30;8.55;;;;;;;24.66;44.62;98786.72;5075723;28;20039;-81
2021/07/10 02:55:13;;;;;;;11.38;9.18;;;;;;;24.74;44.61;98774.66;5093695;28;20071;-81
2021/07/10 02:57:39;;;;;;;18.33;9.07;;;;;;;24.76;44.55;98787.03;5058887;28;20102;-80
2021/07/10 03:00:17;;;;;;;12.48;9.05;;;;;;;24.83;44.28;98776.88;5075907;28;20070;-82
2021/07/10 03:02:43;;;;;;;14.60;9.10;;;;;;;24.97;44.28;98780.25;5076115;28;20052;-83
2021/07/10 03:05:10;;;;;;;16.38;9.23;;;;;;;25.03;44.00;98778.50;5094512;28;20063;-80
2021/07/10 03:07:39;;;;;;;14.88;9.60;;;;;;;24.93;44.12;98760.72;5094006;28;20086;-81
2021/07/10 03:10:09;;;;;;;14.60;9.75;;;;;;;25.12;44.01;98777.16;5075568;28;20044;-81
2021/07/10 03:12:35;;;;;;;20.55;9.20;;;;;;;25.29;43.87;98778.19;5075704;28;20062;-80
2021/07/10 03:15:02;;;;;;;22.02;9.52;;;;;;;25.48;43.70;98776.22;5093608;28;20048;-82
2021/07/10 03:17:28;;;;;;;14.23;9.88;;;;;;;25.66;43.38;98775.34;5093314;28;20448;-82
2021/07/10 03:19:53;;;;;;;12.95;8.70;;;;;;;25.78;43.21;98778.09;5093676;28;20040;-81
2021/07/10 03:22:19;;;;;;;11.93;9.45;;;;;;;25.88;42.76;98775.66;5075961;28;20139;-82
2021/07/10 03:24:45;;;;;;;11.27;8.98;;;;;;;25.91;42.86;98765.06;5094315;28;20154;-83
2021/07/10 03:27:11;;;;;;;18.20;8.60;;;;;;;26.16;42.42;98769.47;5075368;28;20048;-81
2021/07/10 03:29:37;;;;;;;18.73;9.77;;;;;;;26.35;42.15;98762.81;5093236;28;20051;-81
2021/07/10 03:32:03;;;;;;;20.75;8.95;;;;;;;26.48;41.83;98755.44;5093264;28;20154;-82
2021/07/10 03:34:29;;;;;;;18.85;9.25;;;;;;;26.63;41.52;98758.53;5093386;28;20406;-81
2021/07/10 03:36:55;;;;;;;17.20;9.05;;;;;;;26.83;41.34;98758.13;5093242;28;20079;-84
2021/07/10 03:39:21;;;;;;;14.35;8.55;;;;;;;26.97;40.83;98761.41;5093211;28;20039;-79
2021/07/10 03:41:48;;;;;;;16.13;9.10;;;;;;;27.08;40.85;98760.53;5058600;28;20078;-82
2021/07/10 03:44:16;;;;;;;18.60;9.57;;;;;;;27.13;40.92;98755.19;5093238;28;20085;-81
2021/07/10 03:46:42;;;;;;;18.15;10.25;;;;;;;27.07;41.25;98750.63;5093169;28;20052;-80
2021/07/10 03:49:08;;;;;;;23.98;10.40;;;;;;;27.09;41.61;98757.56;5093116;28;20406;-81
2021/07/10 03:51:34;;;;;;;27.00;11.90;;;;;;;27.22;41.24;98758.38;5074897;28;20052;-82
2021/07/10 03:54:00;;;;;;;30.48;11.00;;;;;;;27.34;41.01;98751.78;5042125;28;20047;-81
2021/07/10 03:56:26;;;;;;;22.83;11.13;;;;;;;27.43;41.29;98757.69;5074694;28;20509;-79
2021/07/10 03:58:51;;;;;;;20.65;10.88;;;;;;;27.49;40.87;98753.09;5093091;28;20135;-80
2021/07/10 04:01:17;;;;;;;19.15;10.90;;;;;;;27.61;40.74;98753.91;5058085;28;20039;-81
2021/07/10 04:03:43;;;;;;;15.10;9.63;;;;;;;27.74;40.68;98753.59;5092927;28;20142;-79
2021/07/10 04:06:09;;;;;;;24.15;10.43;;;;;;;27.90;40.34;98751.09;5092614;28;20075;-83
2021/07/10 04:08:35;;;;;;;21.63;10.40;;;;;;;28.11;40.13;98755.84;5043424;28;20044;-82
2021/07/10 04:11:01;;;;;;;16.27;9.70;;;;;;;28.32;39.79;98755.06;5062369;28;20210;-80
2021/07/10 04:13:27;;;;;;;22.05;10.38;;;;;;;28.51;39.45;98757.53;5097505;28;20055;-75
2021/07/10 04:15:53;;;;;;;12.43;8.30;;;;;;;28.52;38.90;98759.22;5079034;28;20268;-80
2021/07/10 04:18:19;;;;;;;13.90;7.50;;;;;;;28.24;38.36;98752.72;5096828;28;20120;-78
2021/07/10 04:20:44;;;;;;;14.20;7.47;;;;;;;28.05;38.58;98754.09;5096618;28;20130;-75
2021/07/10 04:23:10;;;;;;;9.90;7.25;;;;;;;28.05;38.83;98745.84;5096780;28;20044;-78
2021/07/10 04:25:36;;;;;;;8.90;6.75;;;;;;;28.27;38.91;98746.72;5096524;28;20050;-80
2021/07/10 04:28:02;;;;;;;9.90;6.85;;;;;;;28.20;38.45;98748.81;5046306;28;20129;-82
2021/07/10 04:30:28;;;;;;;12.13;7.03;;;;;;;28.31;38.38;98731.41;5105276;28;20487;-78
2021/07/10 04:32:54;;;;;;;15.73;7.07;;;;;;;28.62;37.70;98742.03;5098443;28;20134;-81
2021/07/10 04:35:20;;;;;;;15.15;7.10;;;;;;;28.77;37.59;98740.31;5116952;28;20522;-79
2021/07/10 04:37:46;;;;;;;7.78;6.65;;;;;;;28.74;37.13;98740.00;5098782;28;20096;-82
2021/07/10 04:40:13;;;;;;;13.52;7.20;;;;;;;28.79;37.50;98745.56;5098890;28;20047;-84
2021/07/10 04:42:39;;;;;;;10.73;7.50;;;;;;;28.91;37.52;98745.41;5048404;28;20498;-78
2021/07/10 04:45:06;;;;;;;12.18;7.43;;;;;;;29.06;36.87;98744.81;5082354;28;20035;-82
2021/07/10 04:47:32;;;;;;;11.75;6.88;;;;;;;29.20;36.76;98744.16;5082087;28;20051;-79
2021/07/10 04:49:58;;;;;;;9.80;6.65;;;;;;;29.21;36.73;98739.47;5098350;28;20387;-79
2021/07/10 04:52:23;;;;;;;12.65;7.00;;;;;;;29.22;36.66;98741.13;5098500;28;20075;-80
2021/07/10 04:54:49;;;;;;;18.38;7.07;;;;;;;29.36;36.55;98733.28;5116457;28;20509;-80
2021/07/10 04:57:15;;;;;;;8.68;6.60;;;;;;;29.28;36.38;98735.41;5081513;28;20071;-81
2021/07/10 04:59:41;;;;;;;14.35;6.85;;;;;;;29.49;36.69;98741.16;5064745;28;20036;-80
2021/07/10 05:02:07;;;;;;;27.20;7.28;;;;;;;29.63;36.36;98730.53;5081694;28;20043;-78
2021/07/10 05:04:33;;;;;;;20.92;6.55;;;;;;;29.87;36.31;98725.53;5116310;28;20515;-77
2021/07/10 05:06:59;;;;;;;13.75;6.97;;;;;;;30.16;35.65;98729.59;5116091;28;20417;-77
2021/07/10 05:09:25;;;;;;;7.90;6.43;;;;;;;30.45;35.27;98732.00;5116579;28;20043;-77
2021/07/10 05:11:51;;;;;;;15.05;6.88;;;;;;;30.52;35.02;98738.13;5116293;28;20074;-77
2021/07/10 05:14:17;;;;;;;14.05;7.10;;;;;;;30.72;34.40;98729.09;5115744;28;20501;-78
2021/07/10 05:16:43;;;;;;;11.77;6.70;;;;;;;30.77;34.63;98736.59;5081304;28;20055;-77
2021/07/10 05:19:09;;;;;;;13.40;7.00;;;;;;;30.48;34.69;98728.72;5097212;28;20409;-76
2021/07/10 05:21:35;;;;;;;13.15;6.55;;;;;;;30.16;35.43;98739.78;5115668;28;20490;-82
2021/07/10 05:24:01;;;;;;;18.75;7.32;;;;;;;30.21;35.77;98729.66;5081043;28;20114;-77
2021/07/10 05:26:28;;;;;;;18.70;7.00;;;;;;;30.37;35.53;98725.06;5097863;28;20139;-79
2021/07/10 05:28:54;;;;;;;16.10;7.20;;;;;;;30.45;35.31;98743.03;5080609;28;20486;-78
2021/07/10 05:31:20;;;;;;;11.82;6.78;;;;;;;30.55;35.45;98731.25;5097545;28;20390;-80
2021/07/10 05:33:46;;;;;;;12.68;7.20;;;;;;;30.64;35.06;98733.19;5115431;28;20414;-80
2021/07/10 05:36:12;;;;;;;11.80;6.82;;;;;;;30.58;34.84;98736.19;5064018;28;20039;-85
2021/07/10 05:38:38;;;;;;;9.05;6.50;;;;;;;30.35;35.03;98738.28;5097388;28;20079;-85
2021/07/10 05:41:04;;;;;;;14.02;7.00;;;;;;;30.29;35.19;98727.50;5115671;28;20086;-83
2021/07/10 05:43:30;;;;;;;13.48;7.13;;;;;;;30.27;35.54;98733.28;5097379;28;20043;-86
2021/07/10 05:45:56;;;;;;;11.68;6.13;;;;;;;30.39;35.31;98733.06;5116197;28;20104;-83
2021/07/10 05:48:22;;;;;;;11.57;7.10;;;;;;;30.43;35.30;98728.69;5115410;28;20048;-88
2021/07/10 05:50:48;;;;;;;11.93;6.50;;;;;;;30.61;35.09;98728.22;5063104;28;20417;-84
2021/07/10 05:53:14;;;;;;;10.90;6.88;;;;;;;30.81;34.52;98729.47;5115377;28;20126;-85
2021/07/10 05:55:40;;;;;;;6.75;5.97;;;;;;;30.83;34.03;98728.06;5097846;28;20483;-82
2021/07/10 05:58:06;;;;;;;8.23;6.22;;;;;;;30.99;33.80;98730.88;5114847;28;20043;-83
2021/07/10 06:00:32;;;;;;;12.32;6.13;;;;;;;30.91;33.58;98737.75;5115488;28;20044;-82
2021/07/10 06:02:59;;;;;;;15.45;6.03;;;;;;;30.63;34.03;98728.78;5079630;28;20058;-86
2021/07/10 06:05:25;;;;;;;12.02;6.03;;;;;;;30.35;34.33;98726.41;5115393;28;20146;-79
2021/07/10 06:07:55;;;;;;;9.07;5.90;;;;;;;30.56;34.40;98733.72;5081245;28;20106;-81
2021/07/10 06:10:21;;;;;;;9.10;6.10;;;;;;;30.57;34.50;98729.84;5088198;28;20395;-84
2021/07/10 06:12:47;;;;;;;10.18;6.20;;;;;;;30.86;34.49;98721.19;5104186;28;20043;-85
2021/07/10 06:15:13;;;;;;;6.63;5.60;;;;;;;30.97;33.89;98722.91;5090687;28;20059;-84
2021/07/10 06:17:42;;;;;;;12.32;6.40;;;;;;;31.20;34.05;98722.41;5114308;28;20040;-81
2021/07/10 06:20:10;;;;;;;10.13;6.03;;;;;;;31.10;33.75;98716.84;5114589;28;20047;-79
2021/07/10 06:22:36;;;;;;;10.35;5.65;;;;;;;31.44;33.50;98716.38;5096927;28;20127;-81
2021/07/10 06:25:04;;;;;;;8.75;6.15;;;;;;;31.46;33.85;98708.69;5096217;28;20039;-80
2021/07/10 06:27:30;;;;;;;11.73;6.47;;;;;;;31.40;32.94;98718.03;5114653;28;20050;-79
2021/07/10 06:29:56;;;;;;;13.48;5.60;;;;;;;31.44;32.82;98708.09;5114549;28;20130;-83
2021/07/10 06:32:22;;;;;;;7.10;6.18;;;;;;;31.70;32.13;98703.44;5095254;28;20047;-81
2021/07/10 06:34:47;;;;;;;9.10;5.25;;;;;;;31.50;32.29;98704.25;5096008;28;20035;-82
2021/07/10 06:37:14;;;;;;;7.82;5.72;;;;;;;31.37;32.01;98704.81;5096393;28;20066;-81
2021/07/10 06:39:40;;;;;;;7.90;5.38;;;;;;;30.99;31.57;98715.16;5114452;28;20133;-78
2021/07/10 06:42:06;;;;;;;7.47;5.43;;;;;;;31.08;32.11;98715.47;5096058;28;20101;-89
2021/07/10 06:44:32;;;;;;;8.30;5.68;;;;;;;31.29;32.03;98697.00;5110488;28;20035;-83
2021/07/10 06:46:58;;;;;;;12.75;6.18;;;;;;;31.12;31.77;98720.19;5084885;28;20505;-80
2021/07/10 06:49:24;;;;;;;10.80;6.30;;;;;;;30.76;32.23;98715.63;5062786;28;20075;-81
2021/07/10 06:51:50;;;;;;;10.10;5.70;;;;;;;30.91;32.50;98712.94;5114372;28;20044;-82
2021/07/10 06:54:16;;;;;;;9.68;5.38;;;;;;;31.01;32.60;98706.63;5079193;28;20420;-82
2021/07/10 06:56:42;;;;;;;13.45;5.90;;;;;;;31.36;32.27;98697.59;5114654;28;20125;-82
2021/07/10 06:59:11;;;;;;;12.80;5.50;;;;;;;31.56;32.06;98691.28;5114264;28;20137;-83
2021/07/10 07:01:37;;;;;;;;;;;;;;;31.97;31.93;98686.59;5097050;28;20039;-79
2021/07/10 07:04:03;;;;;;;12.93;5.85;;;;;;;32.19;31.58;98680.72;5079703;28;19916;-82
2021/07/10 07:06:29;;;;;;;9.02;6.28;;;;;;;32.58;30.96;98686.47;5080211;28;20137;-85
2021/07/10 07:08:55;;;;;;;7.95;6.00;;;;;;;32.36;30.71;98688.72;5093465;28;20043;-85
2021/07/10 07:11:20;;;;;;;9.00;5.47;;;;;;;32.19;31.02;98693.72;5104350;28;20043;-86
2021/07/10 07:13:46;;;;;;;14.52;5.70;;;;;;;31.97;31.20;98686.59;5097486;28;20078;-85
2021/07/10 07:16:12;;;;;;;12.80;5.70;;;;;;;32.26;31.11;98680.44;5115380;28;20126;-85
2021/07/10 07:18:38;;;;;;;12.93;6.15;;;;;;;32.08;31.08;98690.16;5111916;28;20139;-83
2021/07/10 07:21:06;;;;;;;12.43;6.05;;;;;;;32.04;31.14;98669.69;5077546;28;20097;-86
2021/07/10 07:23:32;;;;;;;10.15;6.18;;;;;;;32.38;30.64;98667.13;5094491;28;20078;-85
2021/07/10 07:25:58;;;;;;;10.00;5.65;;;;;;;32.40;30.66;98663.00;5075926;28;20047;-84
2021/07/10 07:28:24;;;;;;;12.15;5.70;;;;;;;32.42;30.40;98659.94;5069405;28;20149;-85
2021/07/10 07:30:50;;;;;;;10.15;5.47;;;;;;;32.47;30.64;98657.19;5077160;28;20075;-84
2021/07/10 07:33:16;;;;;;;10.05;5.35;;;;;;;32.51;30.61;98663.81;5078181;28;20040;-84
2021/07/10 07:35:42;;;;;;;9.98;5.28;;;;;;;32.68;30.50;98668.16;5096305;28;20161;-85
2021/07/10 07:38:08;;;;;;;11.02;5.35;;;;;;;33.02;29.36;98660.78;5095925;28;20047;-84
2021/07/10 07:40:34;;;;;;;9.10;4.93;;;;;;;33.13;28.97;98664.31;5101285;28;20107;-85
2021/07/10 07:43:00;;;;;;;9.55;5.07;;;;;;;32.66;28.70;98671.22;5105015;28;20072;-85
2021/07/10 07:45:26;;;;;;;8.10;5.00;;;;;;;32.27;29.88;98662.72;5080010;28;20097;-87
2021/07/10 07:47:52;;;;;;;11.80;5.30;;;;;;;32.36;30.17;98666.59;5080380;28;20050;-87
2021/07/10 07:50:19;;;;;;;10.95;5.03;;;;;;;32.48;30.15;98650.53;5061668;28;20082;-84
2021/07/10 07:52:45;;;;;;;8.60;5.00;;;;;;;32.77;29.57;98658.16;5095974;28;20056;-85
2021/07/10 07:55:12;;;;;;;8.90;5.05;;;;;;;32.69;29.05;98658.75;5060951;28;20282;-86
2021/07/10 07:57:38;;;;;;;12.38;5.07;;;;;;;32.51;28.88;98654.69;5059809;28;20078;-83
2021/07/10 08:00:07;;;;;;;5.00;4.35;;;;;;;32.15;28.96;98660.28;5095119;28;20097;-84
2021/07/10 08:02:34;;;;;;;9.90;5.05;;;;;;;32.50;28.30;98645.56;5061208;28;20410;-87
2021/07/10 08:05:00;;;;;;;8.15;4.28;;;;;;;32.52;28.18;98656.31;5044276;28;20470;-86
2021/07/10 08:07:26;;;;;;;9.30;4.63;;;;;;;32.67;28.16;98647.13;5094358;28;20059;-86
2021/07/10 08:09:52;;;;;;;5.15;4.65;;;;;;;32.93;28.23;98636.75;5043321;28;20050;-85
2021/07/10 08:12:18;;;;;;;7.22;4.65;;;;;;;33.19;28.07;98640.22;5093366;28;20130;-86
2021/07/10 08:14:44;;;;;;;7.60;4.65;;;;;;;33.33;27.44;98650.34;5041601;28;20142;-85
2021/07/10 08:17:10;;;;;;;5.82;4.57;;;;;;;33.63;27.09;98656.78;5074592;28;20139;-84
2021/07/10 08:19:36;;;;;;;12.48;5.13;;;;;;;33.70;27.28;98650.91;5074284;28;20123;-84
2021/07/10 08:22:02;;;;;;;7.95;5.40;;;;;;;33.96;27.18;98638.44;5058166;28;20040;-86
2021/07/10 08:24:28;;;;;;;10.07;4.70;;;;;;;34.13;26.94;98643.56;5075481;28;20485;-86
2021/07/10 08:26:54;;;;;;;5.80;5.07;;;;;;;34.39;27.07;98629.41;5092710;28;20139;-85
2021/07/10 08:29:20;;;;;;;8.40;4.70;;;;;;;34.64;26.93;98625.50;5074608;28;20044;-86
2021/07/10 08:31:46;;;;;;;6.78;4.70;;;;;;;34.76;26.77;98623.13;5058074;28;20040;-85
2021/07/10 08:34:12;;;;;;;6.93;4.97;;;;;;;34.53;26.37;98627.59;5057802;28;20043;-86
2021/07/10 08:36:39;;;;;;;10.98;5.10;;;;;;;34.47;26.54;98617.66;5075386;28;20113;-86
2021/07/10 08:39:07;;;;;;;11.50;5.35;;;;;;;34.46;26.69;98627.94;5092664;28;20491;-83
2021/07/10 08:41:33;;;;;;;7.10;4.93;;;;;;;34.37;26.83;98626.09;5092936;28;20043;-85
2021/07/10 08:43:59;;;;;;;5.18;4.53;;;;;;;34.31;27.02;98628.13;5074620;28;20130;-84
2021/07/10 08:46:25;;;;;;;7.57;4.50;;;;;;;34.00;27.30;98611.84;5057690;28;20154;-84
2021/07/10 08:48:51;;;;;;;5.18;4.68;;;;;;;34.11;27.32;98603.38;5074495;28;20058;-83
2021/07/10 08:51:17;;;;;;;7.05;4.72;;;;;;;34.84;26.79;98591.09;5091902;28;20130;-83
2021/07/10 08:53:43;;;;;;;9.23;4.90;;;;;;;35.16;25.82;98587.56;5074687;28;20044;-83
2021/07/10 08:56:09;;;;;;;8.23;4.38;;;;;;;34.50;25.83;98597.66;5095580;28;20047;-83
2021/07/10 08:58:35;;;;;;;7.38;4.78;;;;;;;33.96;25.78;98585.75;5060262;28;20036;-82
2021/07/10 09:01:02;;;;;;;6.65;4.38;;;;;;;33.83;26.24;98572.59;5061292;28;20036;-84
2021/07/10 09:03:30;;;;;;;5.85;4.22;;;;;;;34.02;25.85;98581.84;5096320;28;20514;-82
2021/07/10 09:05:56;;;;;;;5.65;3.95;;;;;;;34.08;25.86;98579.84;5078137;28;20078;-83
2021/07/10 09:08:29;;;;;;;7.18;4.97;;;;;;;33.78;26.95;98576.25;5061409;28;20054;-84
2021/07/10 09:11:05;;;;;;;13.45;4.53;;;;;;;34.11;26.90;98570.91;5077504;28;20079;-84
2021/07/10 09:13:43;;;;;;;7.57;4.60;;;;;;;34.14;27.19;98583.38;5061357;28;20494;-84
2021/07/10 09:16:11;;;;;;;6.63;4.57;;;;;;;34.12;26.55;98563.44;5066269;28;20050;-84
2021/07/10 09:18:42;;;;;;;9.15;4.60;;;;;;;34.48;26.44;98572.13;5081098;28;20050;-84
2021/07/10 09:21:09;;;;;;;8.70;4.38;;;;;;;34.69;25.62;98561.59;5096185;28;20410;-85
2021/07/10 09:23:40;;;;;;;10.52;4.75;;;;;;;34.82;25.54;98554.44;5061577;28;20132;-84
2021/07/10 09:26:16;;;;;;;10.50;4.30;;;;;;;35.28;24.96;98546.22;5061876;28;20044;-83
2021/07/10 09:28:43;;;;;;;8.07;4.10;;;;;;;35.91;24.52;98572.63;5078012;28;20063;-87
2021/07/10 09:31:14;;;;;;;6.35;3.90;;;;;;;36.06;24.13;98527.03;5078211;28;20162;-87
2021/07/10 09:33:40;;;;;;;8.80;4.53;;;;;;;35.42;24.67;98574.88;5052067;28;20054;-85
2021/07/10 09:36:07;;;;;;;11.93;4.60;;;;;;;34.59;25.69;98564.50;5116369;28;20061;-84
2021/07/10 09:38:34;;;;;;;9.95;4.45;;;;;;;34.27;26.43;98563.25;5116310;28;20036;-85
2021/07/10 09:41:05;;;;;;;31.60;5.80;;;;;;;33.56;28.91;98568.44;5115298;28;20506;-81
2021/07/10 09:43:33;;;;;;;28.67;5.68;;;;;;;32.54;31.14;98571.94;5063892;28;20410;-84
2021/07/10 09:46:01;;;;;;;20.17;4.57;;;;;;;32.41;31.64;98572.53;5086450;28;20055;-86
2021/07/10 09:48:31;;;;;;;18.27;4.88;;;;;;;32.97;31.23;98594.38;5077592;28;20302;-86
2021/07/10 09:51:17;;;;;;;15.82;4.32;;;;;;;33.02;31.31;98580.50;5045054;28;20046;-85
2021/07/10 09:54:06;;;;;;;8.35;4.45;;;;;;;33.11;31.12;98573.25;5061292;28;20050;-85
2021/07/10 09:56:34;;;;;;;13.05;4.60;;;;;;;33.05;31.40;98579.94;5060789;28;20143;-84
2021/07/10 09:59:00;;;;;;;13.07;4.70;;;;;;;32.45;32.23;98592.16;5060161;28;20106;-83
2021/07/10 10:01:30;;;;;;;6.65;4.47;;;;;;;32.14;32.95;98573.75;5060683;28;20040;-84
2021/07/10 10:03:56;;;;;;;9.57;4.78;;;;;;;31.69;34.05;98580.19;5077185;28;20036;-85
2021/07/10 10:06:30;;;;;;;7.95;4.70;;;;;;;31.51;34.34;98578.84;5075536;28;20106;-82
2021/07/10 10:08:57;;;;;;;7.38;4.88;;;;;;;31.46;34.76;98587.13;5077204;28;20126;-83
2021/07/10 10:11:24;;;;;;;;;;;;;;;31.39;34.79;98589.34;5077573;28;20070;-83
2021/07/10 10:13:51;;;;;;;8.32;4.68;;;;;;;31.28;35.33;98598.72;5094884;28;19924;-83
2021/07/10 10:16:17;;;;;;;7.65;4.68;;;;;;;31.21;35.62;98587.94;5076823;28;20052;-80
2021/07/10 10:18:43;;;;;;;12.65;4.82;;;;;;;31.46;35.04;98581.63;5084942;28;20342;-82
2021/07/10 10:21:09;;;;;;;7.55;5.10;;;;;;;31.52;34.62;98597.09;5047252;28;20051;-82
2021/07/10 10:23:36;;;;;;;7.00;4.65;;;;;;;32.08;34.17;98583.19;5115071;28;20138;-82
2021/07/10 10:26:03;;;;;;;7.82;4.53;;;;;;;32.23;33.29;98573.16;5096004;28;20059;-82
2021/07/10 10:28:29;;;;;;;8.23;4.40;;;;;;;32.19;32.73;98572.06;5096776;28;20035;-80
2021/07/10 10:30:56;;;;;;;10.82;3.97;;;;;;;31.86;33.38;98571.66;5079610;28;20463;-83
2021/07/10 10:33:22;;;;;;;6.47;4.10;;;;;;;31.89;33.22;98565.53;5096497;28;20134;-83
2021/07/10 10:35:49;;;;;;;13.48;4.25;;;;;;;31.97;33.22;98570.50;5096159;28;20402;-82
2021/07/10 10:38:16;;;;;;;10.55;4.20;;;;;;;31.98;33.08;98563.03;5114451;28;20044;-82
2021/07/10 10:40:42;;;;;;;10.65;4.88;;;;;;;31.74;33.46;98560.84;5114598;28;20126;-82
2021/07/10 10:43:08;;;;;;;5.57;4.22;;;;;;;31.61;33.79;98567.78;5114483;28;20038;-84
2021/07/10 10:45:36;;;;;;;7.45;4.30;;;;;;;31.71;33.48;98557.81;5063208;28;20410;-84
2021/07/10 10:48:02;;;;;;;10.48;4.45;;;;;;;31.69;33.59;98558.91;5080297;28;20055;-82
2021/07/10 10:50:30;;;;;;;7.57;4.47;;;;;;;31.75;33.61;98557.00;5079461;28;20062;-82
2021/07/10 10:52:57;;;;;;;14.75;4.10;;;;;;;31.64;34.22;98555.34;5095940;28;20044;-82
2021/07/10 10:55:29;;;;;;;6.57;4.10;;;;;;;31.80;33.87;98545.09;5096685;28;20032;-82
2021/07/10 10:57:56;;;;;;;14.30;4.50;;;;;;;31.85;33.83;98545.06;5097121;28;20044;-82
2021/07/10 11:00:29;;;;;;;9.20;4.50;;;;;;;31.89;33.97;98535.94;5079602;28;20383;-81
2021/07/10 11:02:57;;;;;;;6.53;4.47;;;;;;;31.90;34.09;98534.03;5079430;28;20058;-82
2021/07/10 11:05:32;;;;;;;17.73;4.93;;;;;;;32.14;33.81;98526.75;5103320;27;20039;-82
2021/07/10 11:08:29;;;;;;;12.02;5.00;;;;;;;32.36;33.50;98523.59;5098156;27;20144;-83
2021/07/10 11:11:01;;;;;;;11.25;4.90;;;;;;;32.62;33.33;98531.78;5134267;27;20038;-84
2021/07/10 11:13:30;;;;;;;10.85;4.75;;;;;;;32.94;32.94;98520.22;5117071;27;20381;-82
2021/07/10 11:16:06;;;;;;;10.57;4.82;;;;;;;33.19;32.27;98521.13;5094724;28;20086;-85
2021/07/10 11:18:55;;;;;;;5.45;4.15;;;;;;;33.44;31.81;98523.66;5095342;28;20494;-83
2021/07/10 11:21:39;;;;;;;7.13;4.57;;;;;;;33.75;31.04;98520.59;5112810;28;20051;-80
2021/07/10 11:26:43;;;;;;;;;;;;;;;33.75;30.99;98515.03;5113527;28;20047;-79
2021/07/10 11:29:48;;;;;;;5.97;4.30;;;;;;;33.86;31.36;98513.81;5094658;28;20378;-77